Time;durP1;ratioP1;P1;durP2;ratioP2;P2;SDS_P1;SDS_P2;PMS_P1;PMS_P2;Temp;Humidity;BMP_temperature;BMP_pressure;BME280_temperature;BME280_humidity;BME280_pressure;Samples;Min_cycle;Max_cycle;Signal;HPM_P1;HPM_P2
2023/07/04 00:00:12;;;;;;;;;;;22.40;99.00;22.30;99593.00;;;;334143;29;82533;-88
2023/07/04 00:00:24;;;;;;;;;;;22.40;99.00;22.30;99589.00;;;;336094;28;97227;-88
2023/07/04 00:00:36;;;;;;;;;;;22.40;99.10;22.30;99600.00;;;;336230;28;82854;-88
2023/07/04 00:01:00;;;;;;;;;;;22.40;99.10;22.20;99603.00;;;;334743;29;94116;-88
2023/07/04 00:01:14;;;;;;;;;;;22.40;99.10;22.20;99597.00;;;;335353;29;83418;-87
2023/07/04 00:01:26;;;;;;;;;;;22.40;99.10;22.30;99598.00;;;;332117;29;96404;-88
2023/07/04 00:01:38;;;;;;;;;;;22.40;99.10;22.30;99601.00;;;;331706;29;83368;-89
2023/07/04 00:01:51;;;;;;;;;;;22.40;99.00;22.30;99599.00;;;;332079;29;97111;-88
2023/07/04 00:02:04;;;;;;;;;;;22.40;99.00;22.20;99591.00;;;;335504;29;83531;-88
2023/07/04 00:02:16;;;;;;;;;;;22.40;99.00;22.20;99602.00;;;;334738;29;94311;-88
2023/07/04 00:02:28;;;;;;;;;;;22.40;99.10;22.30;99597.00;;;;334199;29;82573;-88
2023/07/04 00:02:40;;;;;;;;;;;22.40;99.10;22.30;99598.00;;;;333255;29;96386;-88
2023/07/04 00:02:52;;;;;;;;;;;22.40;99.10;22.30;99594.00;;;;335577;29;83413;-88
2023/07/04 00:03:04;;;;;;;;;;;22.30;99.10;22.30;99594.00;;;;335917;28;95210;-88
2023/07/04 00:03:16;;;;;;;;;;;22.30;99.10;22.20;99595.00;;;;334101;29;83456;-87
2023/07/04 00:03:28;;;;;;;;;;;22.30;99.20;22.10;99597.00;;;;332191;29;94069;-88
2023/07/04 00:03:41;;;;;;;;;;;22.30;99.20;22.10;99597.00;;;;334340;29;83468;-88
2023/07/04 00:03:56;;;;;;;;;;;22.30;99.10;22.00;99590.00;;;;332062;29;96346;-88
2023/07/04 00:04:08;;;;;;;;;;;22.30;99.20;22.00;99589.00;;;;332888;29;83474;-88
2023/07/04 00:04:20;;;;;;;;;;;22.20;99.20;22.00;99602.00;;;;334579;29;96744;-87
2023/07/04 00:04:32;;;;;;;;;;;22.20;99.20;22.00;99597.00;;;;331476;29;82595;-88
2023/07/04 00:04:44;;;;;;;;;;;22.20;99.20;22.00;99595.00;;;;332064;29;94227;-88
2023/07/04 00:04:56;;;;;;;;;;;22.20;99.30;22.00;99590.00;;;;334163;29;82461;-89
2023/07/04 00:05:08;;;;;;;;;;;22.20;99.30;22.10;99597.00;;;;333361;29;94749;-89
2023/07/04 00:05:19;;;;;;;;;;;22.20;99.30;22.10;99597.00;;;;331448;29;83558;-89
2023/07/04 00:05:31;;;;;;;;;;;22.20;99.30;22.10;99590.00;;;;332115;29;94041;-89
2023/07/04 00:05:47;;;;;;;;;;;22.20;99.30;22.10;99592.00;;;;334186;29;82548;-88
2023/07/04 00:05:59;;;;;;;;;;;22.20;99.30;22.00;99592.00;;;;333237;29;97135;-90
2023/07/04 00:06:13;;;;;;;;;;;22.20;99.30;22.00;99592.00;;;;334209;29;82459;-89
2023/07/04 00:06:28;;;;;;;;;;;22.10;99.30;22.00;99583.00;;;;332143;29;94677;-89
2023/07/04 00:06:39;;;;;;;;;;;22.10;99.40;22.00;99585.00;;;;335268;29;83456;-89
2023/07/04 00:06:51;;;;;;;;;;;22.10;99.40;22.00;99592.00;;;;336008;28;94133;-90
2023/07/04 00:07:04;;;;;;;;;;;22.10;99.30;22.00;99593.00;;;;335479;29;83434;-89
2023/07/04 00:07:16;;;;;;;;;;;22.10;99.30;22.10;99588.00;;;;333198;29;97963;-90
2023/07/04 00:07:28;;;;;;;;;;;22.10;99.30;22.10;99592.00;;;;335457;29;82458;-89
2023/07/04 00:07:41;;;;;;;;;;;22.10;99.30;22.10;99597.00;;;;333418;29;95550;-90
2023/07/04 00:07:53;;;;;;;;;;;22.10;99.30;22.10;99592.00;;;;335371;29;82532;-88
2023/07/04 00:08:05;;;;;;;;;;;22.10;99.40;22.10;99589.00;;;;334594;29;94378;-88
2023/07/04 00:08:17;;;;;;;;;;;22.10;99.30;22.10;99588.00;;;;336710;28;83500;-87
2023/07/04 00:08:33;;;;;;;;;;;22.10;99.40;22.10;99593.00;;;;333311;29;96776;-87
2023/07/04 00:08:45;;;;;;;;;;;22.10;99.50;22.10;99589.00;;;;334184;29;83323;-87
2023/07/04 00:08:57;;;;;;;;;;;22.10;99.50;22.10;99597.00;;;;334699;29;93944;-86
2023/07/04 00:09:09;;;;;;;;;;;22.10;99.50;22.10;99593.00;;;;335426;29;83443;-87
2023/07/04 00:09:20;;;;;;;;;;;22.10;99.50;22.10;99593.00;;;;334489;29;95060;-87
2023/07/04 00:09:32;;;;;;;;;;;22.10;99.50;22.10;99594.00;;;;332781;29;83429;-87
2023/07/04 00:09:44;;;;;;;;;;;22.10;99.50;22.10;99582.00;;;;334541;29;95722;-87
2023/07/04 00:09:56;;;;;;;;;;;22.10;99.50;22.10;99585.00;;;;334084;29;83355;-87
2023/07/04 00:10:08;;;;;;;;;;;22.10;99.50;22.10;99590.00;;;;330720;29;96911;-87
2023/07/04 00:10:20;;;;;;;;;;;22.10;99.50;22.10;99588.00;;;;334152;29;83395;-87
2023/07/04 00:10:32;;;;;;;;;;;22.10;99.50;22.10;99591.00;;;;331950;29;95830;-87
2023/07/04 00:10:43;;;;;;;;;;;22.10;99.40;22.10;99586.00;;;;334102;29;83397;-87
2023/07/04 00:10:58;;;;;;;;;;;22.10;99.50;22.00;99587.00;;;;333465;29;94203;-86
2023/07/04 00:11:11;;;;;;;;;;;22.10;99.50;22.00;99587.00;;;;335435;29;83439;-87
2023/07/04 00:11:23;;;;;;;;;;;22.10;99.50;22.00;99591.00;;;;335870;28;95179;-87
2023/07/04 00:11:35;;;;;;;;;;;22.10;99.50;22.10;99589.00;;;;336517;28;83603;-87
2023/07/04 00:11:47;;;;;;;;;;;22.10;99.40;22.10;99592.00;;;;333393;29;94271;-87
2023/07/04 00:11:59;;;;;;;;;;;22.10;99.40;22.10;99589.00;;;;335355;29;83543;-87
2023/07/04 00:12:11;;;;;;;;;;;22.10;99.50;22.10;99590.00;;;;333529;29;93095;-87
2023/07/04 00:12:23;;;;;;;;;;;22.10;99.50;22.00;99586.00;;;;334096;29;83491;-87
2023/07/04 00:12:34;;;;;;;;;;;22.10;99.50;22.00;99585.00;;;;334680;29;93761;-87
2023/07/04 00:12:46;;;;;;;;;;;22.10;99.60;22.00;99576.00;;;;331373;29;83280;-87
2023/07/04 00:12:58;;;;;;;;;;;22.10;99.60;22.10;99581.00;;;;330820;29;93853;-87
2023/07/04 00:13:10;;;;;;;;;;;22.10;99.50;22.10;99586.00;;;;335461;29;83488;-87
2023/07/04 00:13:22;;;;;;;;;;;22.10;99.50;22.00;99584.00;;;;335777;28;97409;-87
2023/07/04 00:13:35;;;;;;;;;;;22.10;99.60;22.00;99585.00;;;;334161;29;82553;-87
2023/07/04 00:13:47;;;;;;;;;;;22.10;99.60;22.10;99589.00;;;;334622;29;97371;-87
2023/07/04 00:13:59;;;;;;;;;;;22.00;99.60;22.10;99582.00;;;;335276;29;83528;-87
2023/07/04 00:14:11;;;;;;;;;;;22.10;99.60;22.10;99580.00;;;;332014;29;96371;-87
2023/07/04 00:14:23;;;;;;;;;;;22.00;99.50;22.20;99588.00;;;;334188;29;82453;-87
2023/07/04 00:14:35;;;;;;;;;;;22.10;99.60;22.20;99582.00;;;;334484;29;96846;-87
2023/07/04 00:14:47;;;;;;;;;;;22.10;99.60;22.20;99592.00;;;;335448;29;83334;-87
2023/07/04 00:14:59;;;;;;;;;;;22.10;99.60;22.20;99592.00;;;;334686;29;93187;-87
2023/07/04 00:15:11;;;;;;;;;;;22.00;99.60;22.20;99587.00;;;;334137;29;83412;-87
2023/07/04 00:15:23;;;;;;;;;;;22.10;99.60;22.20;99586.00;;;;333260;29;98157;-87
2023/07/04 00:15:34;;;;;;;;;;;22.10;99.60;22.10;99585.00;;;;332841;29;83389;-87
2023/07/04 00:15:51;;;;;;;;;;;22.10;99.60;22.10;99586.00;;;;331989;29;97259;-87
2023/07/04 00:16:05;;;;;;;;;;;22.00;99.50;22.20;99590.00;;;;332859;29;83382;-87
2023/07/04 00:16:18;;;;;;;;;;;22.00;99.60;22.20;99583.00;;;;334749;29;93977;-87
2023/07/04 00:16:30;;;;;;;;;;;22.10;99.60;22.20;99582.00;;;;334100;29;83444;-87
2023/07/04 00:16:42;;;;;;;;;;;22.00;99.60;22.20;99586.00;;;;330774;29;94484;-87
2023/07/04 00:16:55;;;;;;;;;;;22.10;99.60;22.20;99586.00;;;;332916;29;83310;-87
2023/07/04 00:17:06;;;;;;;;;;;22.10;99.70;22.20;99589.00;;;;335967;28;97281;-87
2023/07/04 00:17:18;;;;;;;;;;;22.10;99.60;22.20;99586.00;;;;335293;29;83462;-87
2023/07/04 00:17:30;;;;;;;;;;;22.10;99.60;22.20;99588.00;;;;330758;29;93696;-87
2023/07/04 00:17:45;;;;;;;;;;;22.00;99.50;22.20;99583.00;;;;332872;29;83258;-87
2023/07/04 00:17:57;;;;;;;;;;;22.10;99.60;22.30;99579.00;;;;335875;28;96373;-87
2023/07/04 00:18:09;;;;;;;;;;;22.10;99.60;22.30;99581.00;;;;335387;29;83498;-87
2023/07/04 00:18:22;;;;;;;;;;;22.10;99.60;22.30;99587.00;;;;330792;29;94293;-87
2023/07/04 00:18:36;;;;;;;;;;;22.10;99.70;22.30;99581.00;;;;332733;29;83490;-87
2023/07/04 00:18:48;;;;;;;;;;;22.10;99.60;22.30;99589.00;;;;335810;28;97151;-87
2023/07/04 00:19:03;;;;;;;;;;;22.10;99.60;22.30;99586.00;;;;333987;29;83601;-87
2023/07/04 00:19:15;;;;;;;;;;;22.10;99.50;22.30;99590.00;;;;332024;29;96632;-87
2023/07/04 00:19:29;;;;;;;;;;;22.10;99.60;22.30;99587.00;;;;332847;29;83372;-87
2023/07/04 00:19:41;;;;;;;;;;;22.10;99.60;22.40;99580.00;;;;333369;29;94004;-87
2023/07/04 00:19:53;;;;;;;;;;;22.10;99.70;22.40;99587.00;;;;333998;29;83558;-87
2023/07/04 00:20:06;;;;;;;;;;;22.10;99.70;22.40;99594.00;;;;332007;29;96714;-87
2023/07/04 00:20:18;;;;;;;;;;;22.10;99.70;22.40;99584.00;;;;334170;29;83413;-87
2023/07/04 00:20:33;;;;;;;;;;;22.10;99.70;22.30;99590.00;;;;331846;29;97466;-87
2023/07/04 00:20:45;;;;;;;;;;;22.10;99.70;22.30;99584.00;;;;332797;29;83475;-87
2023/07/04 00:20:58;;;;;;;;;;;22.10;99.70;22.30;99582.00;;;;335931;28;94107;-87
2023/07/04 00:21:12;;;;;;;;;;;22.10;99.80;22.20;99590.00;;;;334133;29;82620;-87
2023/07/04 00:21:24;;;;;;;;;;;22.10;99.80;22.30;99579.00;;;;330751;29;96505;-86
2023/07/04 00:21:38;;;;;;;;;;;22.10;99.70;22.30;99581.00;;;;334134;29;83486;-87
2023/07/04 00:21:50;;;;;;;;;;;22.10;99.80;22.40;99584.00;;;;335912;28;94817;-87
2023/07/04 00:22:04;;;;;;;;;;;22.10;99.90;22.30;99578.00;;;;335317;29;83609;-87
2023/07/04 00:22:16;;;;;;;;;;;22.10;99.80;22.30;99584.00;;;;330833;29;93939;-87
2023/07/04 00:22:27;;;;;;;;;;;22.10;99.90;22.30;99584.00;;;;335483;29;82486;-87
2023/07/04 00:22:40;;;;;;;;;;;22.10;99.90;22.30;99576.00;;;;334658;29;94220;-87
2023/07/04 00:22:52;;;;;;;;;;;22.10;99.90;22.20;99582.00;;;;332814;29;83461;-87
2023/07/04 00:23:04;;;;;;;;;;;22.10;99.90;22.30;99585.00;;;;335946;28;97211;-87
2023/07/04 00:23:16;;;;;;;;;;;22.10;99.80;22.30;99581.00;;;;334159;29;82418;-86
2023/07/04 00:23:31;;;;;;;;;;;22.10;99.80;22.30;99585.00;;;;333317;29;95058;-87
2023/07/04 00:23:45;;;;;;;;;;;22.10;99.80;22.20;99583.00;;;;336768;28;83331;-87
2023/07/04 00:23:57;;;;;;;;;;;22.10;99.80;22.30;99581.00;;;;333157;29;96650;-87
2023/07/04 00:24:10;;;;;;;;;;;22.10;99.80;22.30;99581.00;;;;335412;29;82379;-87
2023/07/04 00:24:21;;;;;;;;;;;22.10;99.80;22.30;99582.00;;;;333436;29;93889;-87
2023/07/04 00:24:33;;;;;;;;;;;22.10;99.80;22.30;99588.00;;;;335273;29;83363;-87
2023/07/04 00:24:47;;;;;;;;;;;22.10;99.80;22.30;99586.00;;;;336018;28;96741;-87
2023/07/04 00:24:59;;;;;;;;;;;22.10;99.80;22.40;99589.00;;;;335342;29;83454;-87
2023/07/04 00:25:11;;;;;;;;;;;22.10;99.80;22.40;99580.00;;;;333362;29;97301;-87
2023/07/04 00:25:22;;;;;;;;;;;22.10;99.80;22.40;99582.00;;;;335343;29;83486;-87
2023/07/04 00:25:34;;;;;;;;;;;22.10;99.80;22.30;99578.00;;;;335785;28;97648;-87
2023/07/04 00:25:46;;;;;;;;;;;22.10;99.80;22.30;99585.00;;;;334202;29;82476;-87
2023/07/04 00:25:58;;;;;;;;;;;22.10;99.80;22.40;99583.00;;;;334554;29;94900;-87
2023/07/04 00:26:11;;;;;;;;;;;22.10;99.80;22.40;99581.00;;;;335423;29;82508;-87
2023/07/04 00:26:24;;;;;;;;;;;22.20;99.80;22.40;99580.00;;;;334610;29;95410;-87
2023/07/04 00:26:36;;;;;;;;;;;22.20;99.80;22.40;99575.00;;;;335248;29;83786;-87
2023/07/04 00:26:48;;;;;;;;;;;22.10;99.70;22.30;99577.00;;;;334579;29;97282;-87
2023/07/04 00:27:00;;;;;;;;;;;22.20;99.70;22.20;99578.00;;;;335323;29;83504;-87
2023/07/04 00:27:12;;;;;;;;;;;22.20;99.80;22.20;99579.00;;;;334504;29;95754;-87
2023/07/04 00:27:24;;;;;;;;;;;22.20;99.90;22.10;99578.00;;;;332746;29;82726;-87
2023/07/04 00:27:36;;;;;;;;;;;22.20;99.90;22.10;99586.00;;;;333327;29;93707;-87
2023/07/04 00:27:48;;;;;;;;;;;22.20;99.90;22.10;99582.00;;;;335375;29;83450;-87
2023/07/04 00:28:05;;;;;;;;;;;22.20;99.90;22.10;99584.00;;;;334526;29;94787;-87
2023/07/04 00:28:16;;;;;;;;;;;22.20;99.90;22.10;99587.00;;;;334059;29;83433;-87
2023/07/04 00:28:28;;;;;;;;;;;22.10;99.90;22.10;99583.00;;;;334629;29;94875;-87
2023/07/04 00:28:42;;;;;;;;;;;22.10;99.90;22.10;99577.00;;;;332765;29;82599;-87
2023/07/04 00:28:54;;;;;;;;;;;22.10;99.90;22.00;99575.00;;;;333341;29;96465;-87
2023/07/04 00:29:06;;;;;;;;;;;22.10;99.90;22.00;99578.00;;;;335457;29;83336;-87
2023/07/04 00:29:17;;;;;;;;;;;22.10;99.90;21.90;99580.00;;;;334503;29;96516;-87
2023/07/04 00:29:29;;;;;;;;;;;22.10;99.90;21.90;99575.00;;;;334127;29;83286;-87
2023/07/04 00:29:41;;;;;;;;;;;22.10;99.90;21.80;99576.00;;;;333340;29;93343;-87
2023/07/04 00:29:54;;;;;;;;;;;22.10;99.90;21.80;99569.00;;;;335476;29;82429;-87
2023/07/04 00:30:08;;;;;;;;;;;22.10;99.90;21.80;99572.00;;;;334590;28;94723;-87
2023/07/04 00:30:20;;;;;;;;;;;22.10;99.90;21.80;99571.00;;;;332786;29;82624;-87
2023/07/04 00:30:32;;;;;;;;;;;22.10;99.90;21.70;99576.00;;;;333349;29;96082;-87
2023/07/04 00:30:44;;;;;;;;;;;22.10;99.90;21.70;99577.00;;;;333993;29;83532;-87
2023/07/04 00:30:56;;;;;;;;;;;22.00;99.90;21.70;99583.00;;;;334620;29;96525;-87
2023/07/04 00:31:09;;;;;;;;;;;22.00;99.90;21.60;99577.00;;;;336789;28;83270;-87
2023/07/04 00:31:22;;;;;;;;;;;22.00;99.90;21.70;99580.00;;;;334519;29;96343;-87
2023/07/04 00:31:34;;;;;;;;;;;22.00;99.90;21.70;99583.00;;;;332749;29;83449;-87
2023/07/04 00:31:46;;;;;;;;;;;22.00;99.90;21.80;99578.00;;;;333259;29;97758;-87
2023/07/04 00:32:02;;;;;;;;;;;22.00;99.90;21.80;99575.00;;;;333981;29;83569;-87
2023/07/04 00:32:15;;;;;;;;;;;22.00;99.90;21.70;99585.00;;;;334767;28;98366;-87
2023/07/04 00:34:45;;;;;;;;;;;21.90;99.90;21.80;99577.00;;;;238870;29;98814;-85
2023/07/04 00:34:57;;;;;;;;;;;21.90;99.90;21.80;99574.00;;;;334302;29;83158;-94
2023/07/04 00:35:09;;;;;;;;;;;21.90;99.90;21.80;99570.00;;;;333836;29;93525;-94
2023/07/04 00:35:20;;;;;;;;;;;21.90;99.90;21.80;99571.00;;;;334513;29;82475;-94
2023/07/04 00:35:32;;;;;;;;;;;21.80;99.90;21.80;99580.00;;;;333667;29;96408;-95
2023/07/04 00:35:45;;;;;;;;;;;21.80;99.90;21.80;99570.00;;;;334504;29;83333;-93
2023/07/04 00:36:05;;;;;;;;;;;21.90;99.90;21.90;99573.00;;;;332638;29;95640;-94
2023/07/04 00:36:17;;;;;;;;;;;21.80;99.90;21.90;99570.00;;;;333131;29;82592;-94
2023/07/04 00:36:29;;;;;;;;;;;21.90;99.90;21.90;99568.00;;;;331221;29;95471;-93
2023/07/04 00:36:41;;;;;;;;;;;21.90;99.90;21.80;99569.00;;;;333348;29;82515;-94
2023/07/04 00:36:53;;;;;;;;;;;21.80;99.90;21.80;99571.00;;;;331335;29;96437;-94
2023/07/04 00:37:05;;;;;;;;;;;21.80;99.90;21.80;99565.00;;;;333231;29;82537;-93
2023/07/04 00:37:21;;;;;;;;;;;21.80;99.90;21.90;99573.00;;;;333917;29;96882;-93
2023/07/04 00:37:33;;;;;;;;;;;21.80;99.90;21.90;99566.00;;;;330898;29;82568;-94
2023/07/04 00:37:45;;;;;;;;;;;21.80;99.90;22.00;99580.00;;;;333751;29;96785;-94
2023/07/04 00:37:57;;;;;;;;;;;21.90;99.90;22.00;99575.00;;;;332061;29;83552;-94
2023/07/04 00:38:09;;;;;;;;;;;21.90;99.90;21.90;99562.00;;;;331251;29;96758;-94
2023/07/04 00:38:21;;;;;;;;;;;21.90;99.90;21.90;99567.00;;;;331988;29;82579;-94
2023/07/04 00:38:33;;;;;;;;;;;21.80;99.90;22.00;99570.00;;;;333171;29;95862;-94
2023/07/04 00:38:48;;;;;;;;;;;21.80;99.90;22.00;99571.00;;;;334493;29;83492;-93
2023/07/04 00:39:01;;;;;;;;;;;21.90;99.90;22.00;99565.00;;;;333809;29;95515;-93
2023/07/04 00:39:13;;;;;;;;;;;21.90;99.90;22.00;99572.00;;;;334716;29;82570;-94
2023/07/04 00:39:25;;;;;;;;;;;21.90;99.90;22.00;99569.00;;;;333795;29;95868;-93
2023/07/04 00:39:37;;;;;;;;;;;21.90;99.90;22.10;99571.00;;;;332283;29;82534;-93
2023/07/04 00:39:49;;;;;;;;;;;21.90;99.90;22.10;99566.00;;;;335382;29;96562;-94
2023/07/04 00:40:01;;;;;;;;;;;21.90;99.90;22.10;99563.00;;;;333547;29;82580;-93
2023/07/04 00:40:13;;;;;;;;;;;21.90;99.90;22.10;99570.00;;;;334958;29;95154;-94
2023/07/04 00:40:26;;;;;;;;;;;21.90;99.90;22.00;99569.00;;;;336036;29;82547;-94
2023/07/04 00:40:38;;;;;;;;;;;21.90;99.90;22.00;99564.00;;;;332525;29;95735;-93
2023/07/04 00:40:51;;;;;;;;;;;21.90;99.90;22.00;99575.00;;;;335897;29;82526;-93
2023/07/04 00:41:16;;;;;;;;;;;21.90;99.90;22.10;99565.00;;;;336546;29;95467;-93
2023/07/04 00:41:29;;;;;;;;;;;21.90;99.90;22.20;99566.00;;;;334638;29;82606;-93
2023/07/04 00:41:41;;;;;;;;;;;21.90;99.90;22.20;99564.00;;;;335027;29;95565;-93
2023/07/04 00:41:54;;;;;;;;;;;21.90;99.90;22.10;99569.00;;;;335815;29;82376;-95
2023/07/04 00:42:08;;;;;;;;;;;21.90;99.90;22.20;99569.00;;;;336389;29;96563;-94
2023/07/04 00:42:21;;;;;;;;;;;21.90;99.90;22.10;99574.00;;;;334538;29;82552;-94
2023/07/04 00:42:35;;;;;;;;;;;21.90;99.90;22.10;99566.00;;;;336428;29;95684;-93
2023/07/04 00:42:49;;;;;;;;;;;21.90;99.90;21.90;99577.00;;;;335878;29;82289;-94
2023/07/04 00:43:04;;;;;;;;;;;21.90;99.90;21.90;99557.00;;;;331241;29;95608;-94
2023/07/04 00:43:16;;;;;;;;;;;21.90;99.90;21.90;99566.00;;;;334733;29;82525;-94
2023/07/04 00:44:19;;;;;;;;;;;21.90;99.90;22.00;99577.00;;;;335077;29;97394;-94
2023/07/04 00:44:34;;;;;;;;;;;21.90;99.90;22.00;99568.00;;;;333852;29;82618;-94
2023/07/04 00:44:54;;;;;;;;;;;21.90;99.90;22.00;99572.00;;;;329927;29;94879;-93
2023/07/04 00:45:20;;;;;;;;;;;21.90;99.90;21.90;99569.00;;;;332732;29;83540;-94
2023/07/04 00:45:35;;;;;;;;;;;21.90;99.90;21.90;99564.00;;;;332159;29;96145;-93
2023/07/04 00:45:56;;;;;;;;;;;21.90;99.90;22.10;99571.00;;;;331749;29;82378;-94
2023/07/04 00:46:08;;;;;;;;;;;21.80;99.90;22.00;99577.00;;;;331784;29;95823;-94
2023/07/04 00:46:26;;;;;;;;;;;21.90;99.90;22.00;99566.00;;;;332731;29;83488;-93
2023/07/04 00:46:45;;;;;;;;;;;21.90;99.90;22.00;99567.00;;;;332087;29;96362;-93
2023/07/04 00:47:10;;;;;;;;;;;21.90;99.90;22.00;99578.00;;;;331481;29;83583;-94
2023/07/04 00:47:32;;;;;;;;;;;21.80;99.90;22.20;99571.00;;;;330811;29;96593;-93
2023/07/04 00:47:53;;;;;;;;;;;21.80;99.90;22.20;99568.00;;;;334080;29;83507;-94
2023/07/04 00:48:05;;;;;;;;;;;21.90;99.90;22.20;99575.00;;;;330824;29;96726;-94
2023/07/04 00:48:17;;;;;;;;;;;21.90;99.90;22.10;99565.00;;;;332740;29;83511;-94
2023/07/04 00:48:29;;;;;;;;;;;21.90;99.90;22.20;99568.00;;;;333248;29;97503;-94
2023/07/04 00:48:47;;;;;;;;;;;21.90;99.90;22.20;99566.00;;;;334140;29;82465;-94
2023/07/04 00:49:00;;;;;;;;;;;21.90;99.90;22.20;99569.00;;;;332135;29;94454;-94
2023/07/04 00:49:37;;;;;;;;;;;21.90;99.90;22.20;99566.00;;;;334073;29;83504;-94
2023/07/04 00:49:50;;;;;;;;;;;21.90;99.90;22.10;99571.00;;;;329445;29;95421;-93
2023/07/04 00:50:07;;;;;;;;;;;21.90;99.90;22.10;99570.00;;;;332911;29;82600;-94
2023/07/04 00:50:24;;;;;;;;;;;21.90;99.90;22.10;99567.00;;;;333255;29;96708;-94
2023/07/04 00:50:39;;;;;;;;;;;21.90;99.90;22.20;99560.00;;;;334114;29;83466;-94
2023/07/04 00:50:53;;;;;;;;;;;21.90;99.90;22.10;99565.00;;;;333281;29;95270;-95
2023/07/04 00:51:05;;;;;;;;;;;21.90;99.90;22.10;99561.00;;;;334179;29;83442;-93
2023/07/04 00:51:22;;;;;;;;;;;21.90;99.90;22.10;99568.00;;;;331880;29;97362;-94
2023/07/04 00:51:34;;;;;;;;;;;21.90;99.90;22.10;99570.00;;;;331439;29;82437;-94
2023/07/04 00:51:54;;;;;;;;;;;21.90;99.90;22.00;99570.00;;;;333453;29;95147;-94
2023/07/04 00:52:13;;;;;;;;;;;21.90;99.90;22.00;99570.00;;;;334226;29;82487;-94
2023/07/04 00:52:27;;;;;;;;;;;21.90;99.90;22.00;99578.00;;;;332114;29;96456;-94
2023/07/04 00:52:39;;;;;;;;;;;21.90;99.90;21.90;99575.00;;;;334849;29;82522;-93
2023/07/04 00:52:53;;;;;;;;;;;21.90;99.90;21.90;99572.00;;;;332685;29;96667;-94
2023/07/04 00:53:06;;;;;;;;;;;21.90;99.90;21.90;99573.00;;;;332267;29;82517;-96
2023/07/04 00:53:18;;;;;;;;;;;21.90;99.90;21.80;99568.00;;;;333778;29;94975;-95
2023/07/04 00:53:30;;;;;;;;;;;21.80;99.90;21.80;99568.00;;;;331642;29;82699;-96
2023/07/04 00:53:42;;;;;;;;;;;21.80;99.90;21.80;99583.00;;;;332137;29;97661;-95
2023/07/04 00:53:54;;;;;;;;;;;21.80;99.90;21.80;99575.00;;;;332842;29;83462;-96
2023/07/04 00:54:06;;;;;;;;;;;21.90;99.90;21.90;99576.00;;;;332229;29;95298;-96
2023/07/04 00:54:19;;;;;;;;;;;21.80;99.90;21.90;99583.00;;;;332856;29;82553;-96
2023/07/04 00:54:44;;;;;;;;;;;21.80;99.90;21.90;99577.00;;;;330926;29;95707;-96
2023/07/04 00:54:57;;;;;;;;;;;21.80;99.90;21.90;99577.00;;;;334271;29;83418;-95
2023/07/04 00:55:10;;;;;;;;;;;21.80;99.90;22.00;99580.00;;;;333512;29;96797;-96
2023/07/04 00:55:21;;;;;;;;;;;21.80;99.90;22.00;99575.00;;;;331775;29;82504;-94
2023/07/04 00:55:35;;;;;;;;;;;21.80;99.90;21.90;99576.00;;;;330972;29;95497;-95
2023/07/04 00:55:47;;;;;;;;;;;21.80;99.90;21.90;99573.00;;;;330569;29;83436;-95
2023/07/04 00:55:59;;;;;;;;;;;21.80;99.90;21.90;99573.00;;;;332449;29;97065;-95
2023/07/04 00:56:12;;;;;;;;;;;21.80;99.90;21.90;99570.00;;;;333182;29;83499;-95
2023/07/04 00:56:25;;;;;;;;;;;21.80;99.90;21.90;99574.00;;;;331263;29;96743;-95
2023/07/04 00:56:37;;;;;;;;;;;21.80;99.90;21.90;99566.00;;;;333326;29;83543;-95
2023/07/04 00:56:54;;;;;;;;;;;21.80;99.90;21.90;99578.00;;;;330995;29;95262;-96
2023/07/04 00:57:07;;;;;;;;;;;21.80;99.90;21.90;99573.00;;;;333019;29;83362;-96
2023/07/04 00:57:20;;;;;;;;;;;21.80;99.90;21.90;99580.00;;;;332441;29;96641;-96
2023/07/04 00:57:33;;;;;;;;;;;21.80;99.90;21.90;99572.00;;;;333001;29;83573;-96
2023/07/04 00:57:47;;;;;;;;;;;21.80;99.90;21.90;99572.00;;;;332288;29;97290;-96
2023/07/04 00:58:04;;;;;;;;;;;21.80;99.90;21.90;99576.00;;;;331741;29;83487;-96
2023/07/04 00:58:16;;;;;;;;;;;21.80;99.90;21.90;99575.00;;;;332127;29;97846;-96
2023/07/04 00:58:31;;;;;;;;;;;21.80;99.90;21.90;99578.00;;;;334154;29;82432;-96
2023/07/04 00:58:43;;;;;;;;;;;21.80;99.90;22.00;99573.00;;;;332088;29;95670;-96
2023/07/04 00:58:59;;;;;;;;;;;21.80;99.90;21.90;99570.00;;;;331415;29;83464;-96
2023/07/04 00:59:11;;;;;;;;;;;21.80;99.90;21.90;99572.00;;;;334685;29;96700;-96
2023/07/04 00:59:23;;;;;;;;;;;21.70;99.90;21.90;99567.00;;;;331466;29;82520;-96
2023/07/04 00:59:38;;;;;;;;;;;21.70;99.90;22.00;99566.00;;;;332020;29;96361;-96
2023/07/04 00:59:52;;;;;;;;;;;21.80;99.90;22.00;99582.00;;;;333995;29;82444;-94
2023/07/04 01:00:18;;;;;;;;;;;21.70;99.90;22.00;99581.00;;;;330761;29;96457;-94
2023/07/04 01:00:31;;;;;;;;;;;21.80;99.90;21.90;99579.00;;;;334023;29;83499;-94
2023/07/04 01:00:44;;;;;;;;;;;21.70;99.90;21.90;99579.00;;;;331950;29;97045;-94
2023/07/04 01:00:56;;;;;;;;;;;21.70;99.90;21.90;99584.00;;;;333784;29;83555;-93
2023/07/04 01:01:08;;;;;;;;;;;21.80;99.90;22.00;99581.00;;;;334630;29;96375;-94
2023/07/04 01:01:20;;;;;;;;;;;21.70;99.90;21.90;99572.00;;;;332797;29;83404;-94
2023/07/04 01:01:32;;;;;;;;;;;21.70;99.90;21.90;99572.00;;;;331951;29;97145;-94
2023/07/04 01:01:44;;;;;;;;;;;21.70;99.90;21.80;99576.00;;;;333881;29;83545;-94
2023/07/04 01:01:57;;;;;;;;;;;21.70;99.90;21.90;99579.00;;;;333309;29;96792;-94
2023/07/04 01:02:19;;;;;;;;;;;21.70;99.90;21.80;99567.00;;;;334033;29;82486;-94
2023/07/04 01:02:32;;;;;;;;;;;21.70;99.90;21.80;99574.00;;;;334645;29;97054;-94
2023/07/04 01:02:46;;;;;;;;;;;21.70;99.90;21.80;99577.00;;;;332857;29;83284;-94
2023/07/04 01:03:05;;;;;;;;;;;21.70;99.90;21.80;99577.00;;;;331886;29;98441;-94
2023/07/04 01:03:20;;;;;;;;;;;21.70;99.90;21.70;99582.00;;;;334119;29;83591;-95
2023/07/04 01:03:32;;;;;;;;;;;21.70;99.90;21.70;99578.00;;;;331998;29;96093;-94
2023/07/04 01:03:44;;;;;;;;;;;21.70;99.90;21.80;99580.00;;;;334077;29;82550;-94
2023/07/04 01:03:56;;;;;;;;;;;21.70;99.90;21.70;99581.00;;;;332153;29;96031;-95
2023/07/04 01:04:08;;;;;;;;;;;21.70;99.90;21.80;99582.00;;;;332821;29;83264;-94
2023/07/04 01:04:20;;;;;;;;;;;21.70;99.90;21.80;99578.00;;;;331918;29;96841;-94
2023/07/04 01:04:32;;;;;;;;;;;21.70;99.90;21.70;99576.00;;;;332794;29;82543;-93
2023/07/04 01:04:45;;;;;;;;;;;21.70;99.90;21.70;99575.00;;;;331977;29;96932;-94
2023/07/04 01:04:57;;;;;;;;;;;21.70;99.90;21.70;99576.00;;;;334032;29;83480;-96
2023/07/04 01:05:09;;;;;;;;;;;21.60;99.90;21.70;99571.00;;;;331981;29;95930;-96
2023/07/04 01:06:03;;;;;;;;;;;21.60;99.90;21.70;99579.00;;;;332755;29;82613;-96
2023/07/04 01:06:21;;;;;;;;;;;21.60;99.90;21.60;99576.00;;;;331690;29;96603;-96
2023/07/04 01:06:40;;;;;;;;;;;21.60;99.90;21.70;99577.00;;;;333885;29;83427;-96
2023/07/04 01:07:10;;;;;;;;;;;21.60;99.90;21.70;99576.00;;;;331830;29;96421;-96
2023/07/04 01:07:41;;;;;;;;;;;21.60;99.90;21.70;99574.00;;;;335361;29;83482;-95
2023/07/04 01:07:55;;;;;;;;;;;21.60;99.90;21.70;99573.00;;;;333103;29;95563;-96
2023/07/04 01:08:10;;;;;;;;;;;21.60;99.90;21.70;99577.00;;;;334152;29;82440;-96
2023/07/04 01:08:23;;;;;;;;;;;21.60;99.90;21.70;99577.00;;;;331868;29;95774;-96
2023/07/04 01:08:37;;;;;;;;;;;21.60;99.90;21.70;99571.00;;;;332430;29;83521;-96
2023/07/04 01:08:55;;;;;;;;;;;21.60;99.90;21.80;99566.00;;;;330760;29;96524;-96
2023/07/04 01:09:08;;;;;;;;;;;21.60;99.90;21.80;99577.00;;;;330294;29;83333;-96
2023/07/04 01:09:20;;;;;;;;;;;21.60;99.90;21.80;99570.00;;;;332111;29;95757;-96
2023/07/04 01:09:31;;;;;;;;;;;21.60;99.90;21.70;99569.00;;;;328821;29;83498;-96
2023/07/04 01:09:47;;;;;;;;;;;21.60;99.90;21.70;99569.00;;;;330668;29;96586;-96
2023/07/04 01:10:11;;;;;;;;;;;21.60;99.90;21.70;99570.00;;;;332845;29;82412;-96
2023/07/04 01:10:25;;;;;;;;;;;21.60;99.90;21.70;99577.00;;;;329434;29;96461;-95
2023/07/04 01:10:43;;;;;;;;;;;21.60;99.90;21.60;99573.00;;;;331503;29;83449;-96
2023/07/04 01:10:55;;;;;;;;;;;21.60;99.90;21.70;99577.00;;;;330717;29;96624;-95